Time;durP1;ratioP1;P1;durP2;ratioP2;P2;SDS_P1;SDS_P2;PMS_P1;PMS_P2;Temp;Humidity;BMP_temperature;BMP_pressure;BME280_temperature;BME280_humidity;BME280_pressure;Samples;Min_cycle;Max_cycle;Signal;HPM_P1;HPM_P2
2022/08/20 00:01:07;762974.00;2.54;1316.62;66054.00;0.22;114.94;;;;;23.10;1.00;;;;;;2266825;61;1306;-89
2022/08/20 00:06:09;617845.00;2.06;1065.04;61295.00;0.20;106.72;;;;;23.10;1.00;;;;;;2266015;61;1978;-86
2022/08/20 00:08:37;695617.00;2.32;1199.64;75805.00;0.25;131.79;;;;;23.00;1.00;;;;;;2264451;61;1681;-87
2022/08/20 00:11:08;794293.00;2.65;1371.17;145620.00;0.49;252.26;;;;;22.90;1.50;;;;;;2264506;61;1027;-86
2022/08/20 00:13:38;912975.00;3.04;1578.92;71641.00;0.24;124.60;;;;;22.70;2.40;;;;;;2264435;61;1042;-87
2022/08/20 00:16:06;852586.00;2.84;1472.99;132308.00;0.44;229.31;;;;;22.60;2.20;;;;;;2270050;40;3604;-88
2022/08/20 00:18:35;1146497.00;3.82;1993.78;94470.00;0.31;164.03;;;;;22.50;2.20;;;;;;2266980;40;3623;-86
2022/08/20 00:21:06;680304.00;2.27;1173.10;119406.00;0.40;207.06;;;;;22.50;1.90;;;;;;2264362;61;1124;-85
2022/08/20 00:23:33;564650.00;1.88;973.22;71472.00;0.24;124.30;;;;;22.50;2.20;;;;;;2264414;61;1067;-89
2022/08/20 00:26:03;582006.00;1.94;1003.16;75296.00;0.25;130.91;;;;;22.40;2.10;;;;;;2264227;61;1429;-88
2022/08/20 00:28:31;580213.00;1.93;1000.07;73369.00;0.24;127.58;;;;;22.30;3.00;;;;;;2275240;40;3490;-89
2022/08/20 00:30:58;750770.00;2.50;1295.40;111621.00;0.37;193.63;;;;;22.30;2.90;;;;;;2260299;61;1598;-87
2022/08/20 00:35:56;1697482.00;5.66;3020.53;125444.00;0.42;217.47;;;;;22.40;2.20;;;;;;2265862;61;1405;-87
2022/08/20 00:38:23;676231.00;2.25;1166.04;115141.00;0.38;199.70;;;;;22.50;2.00;;;;;;2264312;61;1344;-86
2022/08/20 00:40:54;417368.00;1.39;719.66;130693.00;0.44;226.52;;;;;22.60;1.30;;;;;;2264337;61;919;-87
2022/08/20 00:43:29;239898.00;0.80;414.58;0.00;0.00;0.62;;;;;22.50;1.70;;;;;;2264351;61;1046;-90
2022/08/20 00:45:58;630531.00;2.10;1086.97;45043.00;0.15;78.61;;;;;22.60;1.30;;;;;;2264297;61;1311;-88
2022/08/20 00:48:29;807534.00;2.69;1394.27;0.00;0.00;0.62;;;;;22.50;1.80;;;;;;2264260;61;1938;-88
2022/08/20 00:53:27;1556604.00;5.19;2750.09;64670.00;0.22;112.55;;;;;22.60;1.00;;;;;;2266262;61;1424;-88
2022/08/20 00:55:55;420684.00;1.40;725.37;103913.00;0.35;180.33;;;;;22.60;1.50;;;;;;2264246;61;1540;-88
2022/08/20 00:58:22;329062.00;1.10;567.87;64485.00;0.21;112.23;;;;;22.60;1.90;;;;;;2264124;61;1557;-88
2022/08/20 01:00:50;280451.00;0.93;484.31;71109.00;0.24;123.68;;;;;22.70;1.50;;;;;;2264256;61;1106;-89
2022/08/20 01:03:20;340761.00;1.14;587.98;69937.00;0.23;121.65;;;;;22.70;1.00;;;;;;2264237;61;955;-87
2022/08/20 01:08:20;1220144.00;4.07;2126.68;68352.00;0.23;118.91;;;;;22.80;1.00;;;;;;2262165;61;1975;-86
2022/08/20 01:10:49;415866.00;1.39;717.08;63462.00;0.21;110.46;;;;;22.80;1.00;;;;;;2260254;61;1313;-87
2022/08/20 01:13:19;373205.00;1.24;643.75;118139.00;0.39;204.87;;;;;22.70;1.00;;;;;;2260160;61;1536;-87
2022/08/20 01:15:49;316082.00;1.05;545.56;63624.00;0.21;110.74;;;;;22.70;1.00;;;;;;2260554;61;1583;-89
2022/08/20 01:18:24;359015.00;1.20;619.36;61017.00;0.20;106.23;;;;;22.80;1.00;;;;;;2264149;61;1293;-88
2022/08/20 01:23:30;907766.00;3.03;1569.76;34238.00;0.11;59.92;;;;;22.90;1.00;;;;;;2265988;61;1408;-88
2022/08/20 01:28:38;1384262.00;4.61;2427.17;85217.00;0.28;148.05;;;;;23.30;1.00;;;;;;2267183;40;3412;-87
2022/08/20 01:31:07;765811.00;2.55;1321.56;83869.00;0.28;145.72;;;;;23.40;1.00;;;;;;2260046;61;1068;-89
2022/08/20 01:33:34;456687.00;1.52;787.29;68293.00;0.23;118.81;;;;;23.50;1.00;;;;;;2260077;61;1698;-87
2022/08/20 01:36:05;781296.00;2.60;1348.52;64413.00;0.21;112.10;;;;;23.70;1.00;;;;;;2260143;61;1309;-86
2022/08/20 01:38:35;817419.00;2.72;1411.52;74002.00;0.25;128.68;;;;;23.70;1.00;;;;;;2260129;61;1613;-89
2022/08/20 01:41:26;875323.00;2.92;1512.82;111452.00;0.37;193.34;;;;;23.80;1.00;;;;;;2260184;61;1482;-89
2022/08/20 01:43:55;1065436.00;3.55;1848.72;155471.00;0.52;269.24;;;;;24.00;1.00;;;;;;2260136;61;1775;-86
2022/08/20 01:46:27;832220.00;2.77;1437.37;73239.00;0.24;127.36;;;;;23.90;1.00;;;;;;2260220;61;1388;-86
2022/08/20 01:48:57;1482204.00;4.94;2609.68;185850.00;0.62;321.56;;;;;23.80;1.00;;;;;;2260009;61;1937;-87
2022/08/20 01:53:56;1848861.00;6.16;3318.46;68191.00;0.23;118.63;;;;;23.30;1.00;;;;;;2265811;61;1440;-87
2022/08/20 01:56:27;999583.00;3.33;1731.73;70792.00;0.24;123.13;;;;;23.50;1.00;;;;;;2264015;61;1412;-86
2022/08/20 01:58:57;802844.00;2.68;1386.08;16987.00;0.06;30.05;;;;;23.40;1.00;;;;;;2263982;61;1779;-89
2022/08/20 02:01:33;1083608.00;3.61;1881.13;170926.00;0.57;295.86;;;;;23.20;1.00;;;;;;2263975;61;1564;-88
2022/08/20 02:04:06;692035.00;2.31;1193.43;11079.00;0.04;19.82;;;;;23.10;1.00;;;;;;2264177;61;990;-87
2022/08/20 02:06:42;768907.00;2.56;1326.95;52763.00;0.18;91.96;;;;;23.30;1.00;;;;;;2264052;61;1439;-86
2022/08/20 02:09:15;446023.00;1.49;768.94;10096.00;0.03;18.12;;;;;23.20;1.00;;;;;;2282094;56;3866;-86
2022/08/20 02:11:48;217593.00;0.73;376.20;0.00;0.00;0.62;;;;;23.10;1.00;;;;;;2264038;61;1491;-87
2022/08/20 02:14:25;179518.00;0.60;310.66;32345.00;0.11;56.64;;;;;23.10;1.00;;;;;;2263990;61;1525;-86
2022/08/20 02:19:25;1280890.00;4.27;2237.17;0.00;0.00;0.62;;;;;23.00;1.00;;;;;;2269312;61;1434;-84
2022/08/20 02:22:01;235538.00;0.79;407.08;0.00;0.00;0.62;;;;;22.90;1.00;;;;;;2268014;61;1593;-84
2022/08/20 02:24:30;163402.00;0.54;282.90;0.00;0.00;0.62;;;;;22.80;1.00;;;;;;2268062;61;1435;-85
2022/08/20 02:26:57;241529.00;0.81;417.38;61805.00;0.21;107.60;;;;;22.90;1.00;;;;;;2267928;61;1924;-86
2022/08/20 02:29:25;233982.00;0.78;404.40;0.00;0.00;0.62;;;;;23.00;1.00;;;;;;2268546;61;1397;-84
2022/08/20 02:31:53;190667.00;0.64;329.86;53507.00;0.18;93.25;;;;;23.10;1.00;;;;;;2268562;61;1147;-87
2022/08/20 02:36:51;925751.00;3.09;1601.39;0.00;0.00;0.62;;;;;23.20;1.00;;;;;;2270779;61;1428;-86
2022/08/20 02:41:54;420925.00;1.40;725.78;0.00;0.00;0.62;;;;;23.10;1.00;;;;;;2269981;61;1369;-85
2022/08/20 02:46:53;1203500.00;4.01;2096.55;0.00;0.00;0.62;;;;;23.20;1.00;;;;;;2270176;61;1994;-85
2022/08/20 02:51:54;1323925.00;4.41;2315.96;0.00;0.00;0.62;;;;;23.20;1.00;;;;;;2288334;40;3560;-86
2022/08/20 02:54:21;151225.00;0.50;261.92;0.00;0.00;0.62;;;;;23.40;1.00;;;;;;2324231;56;3804;-85
2022/08/20 02:56:48;174064.00;0.58;301.27;0.00;0.00;0.62;;;;;23.30;1.00;;;;;;2272598;61;1684;-85
2022/08/20 02:59:15;188840.00;0.63;326.71;612.00;0.00;1.68;;;;;23.30;1.00;;;;;;2272575;61;1085;-85
2022/08/20 03:01:42;233490.00;0.78;403.55;69227.00;0.23;120.42;;;;;23.50;1.00;;;;;;2272524;61;928;-85
2022/08/20 03:04:16;120684.00;0.40;209.26;0.00;0.00;0.62;;;;;23.50;1.00;;;;;;2272671;61;1095;-85
2022/08/20 03:09:10;648626.00;2.16;1118.26;0.00;0.00;0.62;;;;;23.10;1.00;;;;;;2270402;61;1971;-86
2022/08/20 03:11:43;41901.00;0.14;73.18;0.00;0.00;0.62;;;;;23.10;1.00;;;;;;2268554;61;1589;-84
2022/08/20 03:14:10;230446.00;0.77;398.32;0.00;0.00;0.62;;;;;23.00;1.00;;;;;;2268458;61;1727;-86
2022/08/20 03:16:46;186458.00;0.62;322.61;55920.00;0.19;97.42;;;;;23.00;1.00;;;;;;2268458;61;1730;-87
2022/08/20 03:24:14;823857.00;2.75;1422.76;0.00;0.00;0.62;;;;;23.30;1.00;;;;;;2266279;61;1424;-87
2022/08/20 03:26:41;285694.00;0.95;493.33;18674.00;0.06;32.97;;;;;23.00;1.00;;;;;;2264404;61;1527;-86
2022/08/20 03:36:36;1164751.00;3.88;2026.62;0.00;0.00;0.62;;;;;23.10;1.00;;;;;;2265997;61;1396;-87
2022/08/20 03:39:10;304708.00;1.02;526.01;0.00;0.00;0.62;;;;;23.30;1.00;;;;;;2264382;61;1465;-89
2022/08/20 03:41:39;197878.00;0.66;342.27;0.00;0.00;0.62;;;;;23.30;1.00;;;;;;2264397;61;1498;-87
2022/08/20 03:44:09;231411.00;0.77;399.98;0.00;0.00;0.62;;;;;23.30;1.00;;;;;;2264235;61;1694;-86
2022/08/20 03:46:37;148077.00;0.49;256.49;0.00;0.00;0.62;;;;;22.90;1.00;;;;;;2264416;61;1583;-86
2022/08/20 03:54:05;882385.00;2.94;1525.20;0.00;0.00;0.62;;;;;22.60;1.00;;;;;;2265606;61;1364;-87
2022/08/20 03:56:33;236738.00;0.79;409.14;41587.00;0.14;72.63;;;;;22.60;1.00;;;;;;2264452;61;1557;-86
2022/08/20 03:59:01;242316.00;0.81;418.73;0.00;0.00;0.62;;;;;22.70;1.00;;;;;;2264451;61;1459;-85
2022/08/20 04:01:31;177628.00;0.59;307.40;0.00;0.00;0.62;;;;;22.70;1.00;;;;;;2264467;61;1058;-88
2022/08/20 04:06:27;1396298.00;4.65;2449.46;0.00;0.00;0.62;;;;;22.40;1.00;;;;;;2276272;40;3573;-88
2022/08/20 04:08:55;92380.00;0.31;160.42;0.00;0.00;0.62;;;;;22.40;1.00;;;;;;2264363;61;2006;-87
2022/08/20 04:11:22;372992.00;1.24;643.38;24465.00;0.08;43.00;;;;;22.60;1.00;;;;;;2264309;61;1726;-87
2022/08/20 04:13:49;32120.00;0.11;56.25;0.00;0.00;0.62;;;;;22.60;1.00;;;;;;2264358;61;1124;-88
2022/08/20 04:16:18;253334.00;0.84;437.68;0.00;0.00;0.62;;;;;22.80;1.00;;;;;;2264397;61;1276;-89
2022/08/20 04:18:46;409677.00;1.37;706.44;66590.00;0.22;115.87;;;;;23.00;1.00;;;;;;2264501;61;980;-88
2022/08/20 04:21:13;227250.00;0.76;392.82;0.00;0.00;0.62;;;;;23.10;1.00;;;;;;2274221;40;3700;-85
2022/08/20 04:23:45;190435.00;0.63;329.46;0.00;0.00;0.62;;;;;23.30;1.00;;;;;;2260234;61;1089;-87
2022/08/20 04:26:12;167334.00;0.56;289.67;0.00;0.00;0.62;;;;;23.30;1.00;;;;;;2260374;61;1499;-87
2022/08/20 04:41:11;1040515.00;3.47;1804.36;76349.00;0.25;132.73;;;;;23.10;1.00;;;;;;2265927;61;1399;-86
2022/08/20 04:43:42;201888.00;0.67;349.17;0.00;0.00;0.62;;;;;23.10;1.00;;;;;;2264264;61;1009;-87
2022/08/20 04:48:40;1592259.00;5.31;2817.95;0.00;0.00;0.62;;;;;22.70;1.00;;;;;;2265606;61;1970;-87
2022/08/20 04:51:09;360326.00;1.20;621.61;0.00;0.00;0.62;;;;;22.60;1.00;;;;;;2264088;61;1578;-87
2022/08/20 04:53:36;200959.00;0.67;347.57;51261.00;0.17;89.37;;;;;22.60;1.00;;;;;;2264203;61;1223;-86
2022/08/20 04:56:04;215166.00;0.72;372.03;52671.00;0.18;91.81;;;;;22.80;1.00;;;;;;2264138;61;1624;-87
2022/08/20 04:58:36;143142.00;0.48;247.99;0.00;0.00;0.62;;;;;22.90;1.00;;;;;;2270524;40;3531;-84
2022/08/20 05:01:06;559052.00;1.86;963.57;74522.00;0.25;129.57;;;;;22.80;1.00;;;;;;2264089;61;1859;-87
2022/08/20 05:03:34;366355.00;1.22;631.97;0.00;0.00;0.62;;;;;22.80;1.00;;;;;;2264109;61;1310;-87
2022/08/20 05:06:04;265099.00;0.88;457.92;57812.00;0.19;100.69;;;;;22.80;1.00;;;;;;2264566;40;3598;-86
2022/08/20 05:08:37;456887.00;1.52;787.63;0.00;0.00;0.62;;;;;22.90;1.00;;;;;;2282846;41;3738;-86
2022/08/20 05:11:08;153278.00;0.51;265.46;0.00;0.00;0.62;;;;;23.10;1.00;;;;;;2260137;61;1583;-85
2022/08/20 05:13:37;187823.00;0.63;324.96;0.00;0.00;0.62;;;;;23.50;1.00;;;;;;2260051;61;1752;-84
2022/08/20 05:16:04;57903.00;0.19;100.85;0.00;0.00;0.62;;;;;23.60;1.00;;;;;;2260122;61;1606;-88
2022/08/20 05:18:37;545088.00;1.82;939.49;0.00;0.00;0.62;;;;;23.70;1.00;;;;;;2267519;56;3823;-85
2022/08/20 05:21:06;1141641.00;3.81;1985.05;0.00;0.00;0.62;;;;;23.80;1.00;;;;;;2259667;61;1701;-90
2022/08/20 05:23:35;386310.00;1.29;666.27;0.00;0.00;0.62;;;;;23.80;1.00;;;;;;2285941;41;3658;-87
2022/08/20 05:26:06;156446.00;0.52;270.92;0.00;0.00;0.62;;;;;23.90;1.00;;;;;;2264141;61;1538;-86
2022/08/20 05:31:06;1131663.00;3.77;1967.14;0.00;0.00;0.62;;;;;23.60;1.00;;;;;;2271302;55;3683;-86
2022/08/20 05:36:13;949538.00;3.17;1643.30;118763.00;0.40;205.95;;;;;23.20;1.00;;;;;;2269687;61;1416;-86
2022/08/20 05:38:40;132135.00;0.44;229.01;0.00;0.00;0.62;;;;;23.00;1.00;;;;;;2268057;61;1785;-85
2022/08/20 05:41:08;314948.00;1.05;543.61;32558.00;0.11;57.01;;;;;23.10;1.00;;;;;;2268102;61;1590;-88
2022/08/20 05:43:35;132418.00;0.44;229.50;0.00;0.00;0.62;;;;;23.30;1.00;;;;;;2268001;61;1664;-85
2022/08/20 05:54:00;1255835.00;4.19;2191.50;0.00;0.00;0.62;;;;;23.50;1.00;;;;;;2272575;56;3673;-87
2022/08/20 05:56:31;1580699.00;5.27;2795.91;0.00;0.00;0.62;;;;;23.00;1.00;;;;;;2261321;61;1353;-87
2022/08/20 05:59:03;141196.00;0.47;244.63;0.00;0.00;0.62;;;;;23.20;1.00;;;;;;2259693;61;1622;-84
2022/08/20 06:01:30;244141.00;0.81;421.87;0.00;0.00;0.62;;;;;23.70;1.00;;;;;;2290235;40;3574;-88
2022/08/20 06:06:49;61700.00;0.21;107.42;0.00;0.00;0.62;;;;;24.80;1.00;;;;;;2259167;61;1484;-86
2022/08/20 06:09:23;343601.00;1.15;592.86;78590.00;0.26;136.60;;;;;25.10;1.00;;;;;;2272888;56;3779;-85
2022/08/20 06:14:19;909226.00;3.03;1572.33;0.00;0.00;0.62;;;;;26.90;1.00;;;;;;2274403;55;3700;31
2022/08/20 06:16:49;1173369.00;3.91;2042.14;0.00;0.00;0.62;;;;;27.90;1.00;;;;;;2269967;61;2005;-85
2022/08/20 06:24:14;721374.00;2.40;1244.32;0.00;0.00;0.62;;;;;27.30;1.00;;;;;;2274314;61;1236;-87
2022/08/20 06:29:16;1044405.00;3.48;1811.28;0.00;0.00;0.62;;;;;28.00;1.00;;;;;;2266467;61;1971;-87
2022/08/20 06:41:40;1225778.00;4.09;2136.90;85657.00;0.29;148.81;;;;;27.00;1.00;;;;;;2335170;40;3707;-88
2022/08/20 06:46:40;1598253.00;5.33;2829.40;64616.00;0.22;112.46;;;;;26.50;1.00;;;;;;2305866;40;3612;-87
2022/08/20 06:54:09;1510026.00;5.03;2662.00;67709.00;0.23;117.80;;;;;26.20;1.00;;;;;;1979645;40;3468;-89
2022/08/20 07:29:17;2965879.00;9.89;5832.96;191861.00;0.64;331.91;;;;;25.90;1.00;;;;;;2270566;61;1884;-89
2022/08/20 07:37:06;2117779.00;7.06;3869.04;99508.00;0.33;172.72;;;;;25.70;1.00;;;;;;2270719;61;1234;-89
2022/08/20 07:39:36;587210.00;1.96;1012.14;67923.00;0.23;118.17;;;;;25.80;1.00;;;;;;2269279;61;395;-90
2022/08/20 07:49:39;121707960.00;405.69;73034536.00;80055.00;0.27;139.13;;;;;25.60;1.00;;;;;;1154512;40;3634;-90
2022/08/20 07:57:12;2771288.00;9.24;5347.03;146616.00;0.49;253.98;;;;;25.60;1.00;;;;;;2439968;56;3615;-87
2022/08/20 08:12:04;1148708.00;3.83;1997.75;63762.00;0.21;110.98;;;;;26.80;1.00;;;;;;2266354;61;1385;-87
2022/08/20 08:14:38;577978.00;1.93;996.21;135834.00;0.45;235.39;;;;;27.10;1.00;;;;;;2264466;61;1038;-87
2022/08/20 08:17:06;313239.00;1.04;540.68;64359.00;0.21;112.01;;;;;27.70;1.00;;;;;;2264372;61;1682;-88
2022/08/20 08:19:47;393481.00;1.31;678.60;62150.00;0.21;108.19;;;;;27.60;1.00;;;;;;2264433;61;1631;-88
2022/08/20 08:22:17;245667.00;0.82;424.50;63709.00;0.21;110.89;;;;;27.40;1.00;;;;;;2264541;61;1450;-89
2022/08/20 08:24:48;385521.00;1.29;664.92;72181.00;0.24;125.53;;;;;27.60;1.00;;;;;;2264136;61;890;-89
2022/08/20 08:29:52;1334320.00;4.45;2335.05;88477.00;0.29;153.68;;;;;27.90;1.00;;;;;;2262463;61;1943;-88
2022/08/20 08:32:21;345556.00;1.15;596.22;62411.00;0.21;108.64;;;;;28.00;1.00;;;;;;2260339;61;1507;-90
2022/08/20 08:37:18;1158248.00;3.86;2014.91;61864.00;0.21;107.70;;;;;28.30;1.00;;;;;;2266216;61;1428;-89
2022/08/20 08:39:49;262202.00;0.87;452.94;0.00;0.00;0.62;;;;;28.20;1.00;;;;;;2264203;61;1802;-90
2022/08/20 08:42:28;204671.00;0.68;353.96;32007.00;0.11;56.06;;;;;28.40;1.00;;;;;;2264289;61;1012;-89
2022/08/20 08:45:03;284056.00;0.95;490.51;0.00;0.00;0.62;;;;;28.40;1.00;;;;;;2264386;61;1547;-92
2022/08/20 08:47:34;438795.00;1.46;756.51;67542.00;0.23;117.51;;;;;27.90;1.00;;;;;;2268458;41;3633;-89
2022/08/20 09:17:36;933575.00;3.11;1615.17;0.00;0.00;0.62;;;;;27.50;1.00;;;;;;2266858;61;1326;-89
2022/08/20 09:20:05;291942.00;0.97;504.07;0.00;0.00;0.62;;;;;27.60;1.00;;;;;;2279390;56;3821;-90
2022/08/20 09:55:00;1348422.00;4.49;2361.00;13993.00;0.05;24.87;;;;;28.20;1.00;;;;;;2266820;56;3658;-87
2022/08/20 10:02:26;1331679.00;4.44;2330.20;15366.00;0.05;27.24;;;;;28.70;1.00;;;;;;2266061;61;1016;-90
2022/08/20 10:14:58;843388.00;2.81;1456.90;0.00;0.00;0.62;;;;;29.50;1.00;;;;;;2319420;56;3719;-88
2022/08/20 10:22:31;1489394.00;4.96;2623.18;0.00;0.00;0.62;;;;;30.00;1.00;;;;;;2265405;61;1442;-90
2022/08/20 10:27:27;1165052.00;3.88;2027.16;50249.00;0.17;87.62;;;;;29.20;1.00;;;;;;2265881;61;1393;-86
2022/08/20 10:29:56;208597.00;0.70;360.72;0.00;0.00;0.62;;;;;29.10;1.00;;;;;;2263519;61;2006;-87
2022/08/20 10:32:23;240945.00;0.80;416.38;0.00;0.00;0.62;;;;;29.20;1.00;;;;;;2264019;61;2220;-88
2022/08/20 10:52:23;1230794.00;4.10;2146.00;0.00;0.00;0.62;;;;;26.40;1.00;;;;;;2267077;61;1156;-88
2022/08/20 10:54:51;142984.00;0.48;247.71;0.00;0.00;0.62;;;;;26.20;1.00;;;;;;2265311;61;981;-89
2022/08/20 11:07:27;1136230.00;3.79;1975.34;62298.00;0.21;108.45;;;;;25.50;1.00;;;;;;2269840;56;3731;-89
2022/08/20 11:12:29;1494514.00;4.98;2632.80;65878.00;0.22;114.64;;;;;25.50;1.00;;;;;;2353931;40;3643;-87
2022/08/20 11:20:03;1897647.00;6.33;3416.23;108219.00;0.36;187.76;;;;;25.90;1.00;;;;;;2265769;61;1379;-86
2022/08/20 11:25:01;1509076.00;5.03;2660.21;112381.00;0.37;194.94;;;;;25.30;1.00;;;;;;2299549;56;3720;-88
2022/08/20 11:27:31;119848336.00;399.49;69734680.00;118799672.00;396.00;67918512.00;;;;;25.10;1.00;;;;;;2300261;56;3840;-87
2022/08/20 11:29:58;736105.00;2.45;1269.91;93903.00;0.31;163.05;;;;;25.10;1.00;;;;;;2260548;61;2004;-88
2022/08/20 11:32:26;273784.00;0.91;472.85;63890.00;0.21;111.20;;;;;24.90;2.30;;;;;;2260603;61;1095;-86
2022/08/20 11:34:53;117831664.00;392.77;66270284.00;61015.00;0.20;106.23;;;;;24.80;1.90;;;;;;2260452;61;1239;-88
2022/08/20 11:42:31;1974943.00;6.58;3573.00;100633.00;0.34;174.66;;;;;25.00;2.00;;;;;;2293527;56;3684;-88
2022/08/20 11:44:58;650558.00;2.17;1121.60;76695.00;0.26;133.33;;;;;24.70;2.20;;;;;;2263253;40;3627;-88
2022/08/20 11:47:28;712138.00;2.37;1228.29;0.00;0.00;0.62;;;;;24.00;4.50;;;;;;2260490;61;1756;-89
2022/08/20 11:50:00;527945.00;1.76;909.95;0.00;0.00;0.62;;;;;23.60;6.60;;;;;;2260469;61;2008;-88
2022/08/20 11:52:27;267058.00;0.89;461.29;0.00;0.00;0.62;;;;;23.90;6.50;;;;;;2260585;61;979;-89
2022/08/20 11:54:55;144023.00;0.48;249.51;0.00;0.00;0.62;;;;;24.00;5.20;;;;;;2260622;61;1094;-88
2022/08/20 11:57:22;231182.00;0.77;399.58;0.00;0.00;0.62;;;;;24.10;4.40;;;;;;2260512;61;2280;-89
2022/08/20 11:59:52;523870.00;1.75;902.93;43357.00;0.14;75.70;;;;;24.20;5.10;;;;;;2260422;61;1006;-90
2022/08/20 12:02:19;429961.00;1.43;741.32;0.00;0.00;0.62;;;;;24.50;5.10;;;;;;2260457;61;1685;-87
2022/08/20 12:04:46;417410.00;1.39;719.74;0.00;0.00;0.62;;;;;24.90;3.90;;;;;;2260526;61;2029;-89
2022/08/20 12:07:15;305547.00;1.02;527.46;0.00;0.00;0.62;;;;;24.90;3.80;;;;;;2260238;61;1522;-89
2022/08/20 12:12:18;1495033.00;4.98;2633.78;17914.00;0.06;31.66;;;;;24.50;4.80;;;;;;1958672;56;3571;-89
2022/08/20 12:17:22;601770.00;2.01;1037.28;0.00;0.00;0.62;;;;;24.30;6.30;;;;;;2270567;61;1343;-87
2022/08/20 12:19:51;297174.00;0.99;513.06;0.00;0.00;0.62;;;;;24.30;6.00;;;;;;2275108;55;3782;-88
2022/08/20 12:27:24;1522089.00;5.07;2684.75;17966.00;0.06;31.75;;;;;25.20;4.40;;;;;;2270635;61;1339;-87
2022/08/20 12:44:53;1481923.00;4.94;2609.15;56364.00;0.19;98.19;;;;;25.70;2.00;;;;;;1335693;40;3519;-89
2022/08/20 12:52:42;379655.00;1.27;654.83;0.00;0.00;0.62;;;;;26.10;1.00;;;;;;2322609;40;3718;31
2022/08/20 13:10:14;122457.00;0.41;212.32;0.00;0.00;0.62;;;;;26.60;1.00;;;;;;1568626;60;2180;-87
2022/08/20 13:12:41;212830.00;0.71;368.01;0.00;0.00;0.62;;;;;26.30;1.00;;;;;;2268856;61;1015;-89
2022/08/20 13:15:09;181469.00;0.60;314.02;0.00;0.00;0.62;;;;;26.60;1.00;;;;;;2268882;61;782;-90
2022/08/20 13:17:36;417296.00;1.39;719.54;0.00;0.00;0.62;;;;;26.90;1.00;;;;;;2268894;61;1328;-87
2022/08/20 13:20:04;281696.00;0.94;486.45;0.00;0.00;0.62;;;;;27.10;1.00;;;;;;2268879;61;1076;-89
2022/08/20 13:22:31;333804.00;1.11;576.02;0.00;0.00;0.62;;;;;27.10;1.00;;;;;;2268752;61;1588;-86
2022/08/20 13:34:58;731179.00;2.44;1261.35;27506.00;0.09;48.27;;;;;26.50;1.00;;;;;;2265615;61;1404;-87
2022/08/20 13:37:27;124427.00;0.41;215.72;0.00;0.00;0.62;;;;;26.90;1.00;;;;;;2264198;61;1396;-88
2022/08/20 13:39:56;184745.00;0.62;319.66;0.00;0.00;0.62;;;;;27.00;1.00;;;;;;2264219;61;2022;-88
2022/08/20 13:42:23;210767.00;0.70;364.46;26725.00;0.09;46.91;;;;;26.90;1.00;;;;;;2264093;61;1490;-86
2022/08/20 13:44:50;325855.00;1.09;562.36;0.00;0.00;0.62;;;;;27.20;1.00;;;;;;2264055;61;1476;-88
2022/08/20 13:47:18;265704.00;0.89;458.96;0.00;0.00;0.62;;;;;27.20;1.00;;;;;;2264100;61;1581;-91
2022/08/20 13:49:46;118781792.00;395.94;67887808.00;0.00;0.00;0.62;;;;;27.50;1.00;;;;;;2264184;61;1922;-87
2022/08/20 13:52:15;204540.00;0.68;353.74;0.00;0.00;0.62;;;;;27.70;1.00;;;;;;2263898;61;996;-90
2022/08/20 13:54:42;291694.00;0.97;503.64;34174.00;0.11;59.81;;;;;28.10;1.00;;;;;;2272638;40;3609;-88
2022/08/20 13:57:13;148964.00;0.50;258.02;0.00;0.00;0.62;;;;;28.40;1.00;;;;;;2264117;61;1474;-88
2022/08/20 13:59:51;162965.00;0.54;282.15;0.00;0.00;0.62;;;;;28.50;1.00;;;;;;2264095;61;1674;-89
2022/08/20 14:02:22;219885.00;0.73;380.15;0.00;0.00;0.62;;;;;28.60;1.00;;;;;;2264209;61;889;-87
2022/08/20 14:04:51;221525.00;0.74;382.97;0.00;0.00;0.62;;;;;28.60;1.00;;;;;;2264072;61;1569;-87
2022/08/20 14:07:22;207854.00;0.69;359.44;0.00;0.00;0.62;;;;;28.60;1.00;;;;;;2263999;61;1491;-89
2022/08/20 14:09:53;221150.00;0.74;382.32;0.00;0.00;0.62;;;;;28.50;1.00;;;;;;2264041;61;1926;-89
2022/08/20 14:12:23;119788.00;0.40;207.72;0.00;0.00;0.62;;;;;28.40;1.00;;;;;;2264152;61;1006;-87
2022/08/20 14:14:52;135813.00;0.45;235.35;0.00;0.00;0.62;;;;;28.20;1.00;;;;;;2264124;61;1376;-91
2022/08/20 14:17:23;184683.00;0.62;319.55;14311.00;0.05;25.42;;;;;28.40;1.00;;;;;;2264079;61;1714;-89
2022/08/20 14:19:52;0.00;0.00;0.62;0.00;0.00;0.62;;;;;28.10;1.00;;;;;;2264123;61;1513;-89
2022/08/20 14:22:23;308753.00;1.03;532.97;35682.00;0.12;62.42;;;;;28.00;1.00;;;;;;2264219;61;1492;-87
2022/08/20 14:24:52;171045.00;0.57;296.07;0.00;0.00;0.62;;;;;27.80;1.00;;;;;;2264749;61;1581;-87
2022/08/20 14:27:21;199556.00;0.67;345.16;0.00;0.00;0.62;;;;;27.20;1.00;;;;;;2264769;61;1440;-86
2022/08/20 14:29:50;278786.00;0.93;481.45;67584.00;0.23;117.59;;;;;27.00;1.00;;;;;;2264714;61;2005;-86
2022/08/20 14:32:17;171291.00;0.57;296.49;19253.00;0.06;33.98;;;;;27.00;1.00;;;;;;2264733;61;1623;-90
2022/08/20 14:34:47;211633.00;0.71;365.95;74695.00;0.25;129.87;;;;;27.00;1.00;;;;;;2264745;61;1587;-90
2022/08/20 14:37:17;433555.00;1.45;747.50;62530.00;0.21;108.85;;;;;27.10;1.00;;;;;;2264651;61;1607;-86
2022/08/20 14:39:51;238702.00;0.80;412.52;0.00;0.00;0.62;;;;;27.20;1.00;;;;;;2264604;61;1039;-86
2022/08/20 14:42:21;129151.00;0.43;223.87;0.00;0.00;0.62;;;;;27.50;1.00;;;;;;2264838;61;1152;-88
2022/08/20 14:44:51;106601.00;0.36;184.96;0.00;0.00;0.62;;;;;27.70;1.00;;;;;;2264791;61;1549;-90
2022/08/20 14:47:22;184703.00;0.62;319.59;0.00;0.00;0.62;;;;;27.50;1.00;;;;;;2264746;61;1470;-91
2022/08/20 14:49:51;166663.00;0.56;288.52;0.00;0.00;0.62;;;;;27.30;1.00;;;;;;2264701;61;2005;-89
2022/08/20 14:52:22;167830.00;0.56;290.53;0.00;0.00;0.62;;;;;27.50;1.00;;;;;;2264694;61;1548;-90
2022/08/20 14:54:54;173910.00;0.58;301.00;0.00;0.00;0.62;;;;;27.70;1.00;;;;;;2264629;61;1515;-89
2022/08/20 14:57:22;349894.00;1.17;603.68;66046.00;0.22;114.93;;;;;27.80;1.00;;;;;;2273095;56;3801;-88
2022/08/20 14:59:55;477891.00;1.59;823.77;125182.00;0.42;217.02;;;;;28.20;1.00;;;;;;2261342;61;1606;-91
2022/08/20 15:02:22;464338.00;1.55;800.45;69472.00;0.23;120.85;;;;;28.20;1.00;;;;;;2260803;61;2172;-86
2022/08/20 15:07:27;651062.00;2.17;1122.47;66092.00;0.22;115.01;;;;;27.80;1.00;;;;;;2266247;61;1507;-87
2022/08/20 15:09:56;350729.00;1.17;605.11;62324.00;0.21;108.49;;;;;27.30;1.00;;;;;;2264618;61;1974;-88
2022/08/20 15:12:24;321512.00;1.07;554.90;69702.00;0.23;121.25;;;;;27.10;1.00;;;;;;2264571;61;920;-87
2022/08/20 15:14:51;317162.00;1.06;547.42;59208.00;0.20;103.11;;;;;27.30;1.00;;;;;;2264436;61;2142;-88
2022/08/20 15:17:22;378430.00;1.26;652.73;53892.00;0.18;93.92;;;;;27.90;1.00;;;;;;2264485;61;1523;-89
2022/08/20 15:19:51;264628.00;0.88;457.11;57865.00;0.19;100.79;;;;;27.70;1.00;;;;;;2276783;56;3806;-91
2022/08/20 15:22:21;1053799.00;3.51;1827.99;55496.00;0.18;96.69;;;;;27.90;1.00;;;;;;2264814;61;1707;-89
2022/08/20 15:24:49;347228.00;1.16;599.10;60153.00;0.20;104.74;;;;;27.90;1.00;;;;;;2264625;61;1388;-89
2022/08/20 15:27:22;388720.00;1.30;670.41;65264.00;0.22;113.58;;;;;28.30;1.00;;;;;;2264546;61;1607;-89
2022/08/20 15:29:49;382497.00;1.27;659.72;65114.00;0.22;113.32;;;;;28.60;1.00;;;;;;2264160;61;2040;-87
2022/08/20 15:32:16;237391.00;0.79;410.26;65003.00;0.22;113.12;;;;;28.90;1.00;;;;;;2264140;61;1128;-86
2022/08/20 15:34:43;384145.00;1.28;662.55;64153.00;0.21;111.66;;;;;29.00;1.00;;;;;;2264308;61;1734;-87
2022/08/20 15:37:12;214781.00;0.72;371.36;58148.00;0.19;101.28;;;;;29.00;1.00;;;;;;2264414;61;1451;-87
2022/08/20 15:42:08;375814.00;1.25;648.23;48599.00;0.16;84.76;;;;;28.80;1.00;;;;;;2270829;61;1313;-88
2022/08/20 15:44:37;383794.00;1.28;661.95;71005.00;0.24;123.50;;;;;29.00;1.00;;;;;;2268377;61;1740;-86
2022/08/20 15:47:24;198446.00;0.66;343.25;63351.00;0.21;110.27;;;;;28.70;1.00;;;;;;2268170;61;1296;-86
2022/08/20 15:50:00;369561.00;1.23;637.48;0.00;0.00;0.62;;;;;28.70;1.00;;;;;;2306240;40;3663;-85
2022/08/20 15:52:32;250144.00;0.83;432.20;59855.00;0.20;104.23;;;;;28.60;1.00;;;;;;2268162;61;1104;-84